Time;durP1;ratioP1;P1;durP2;ratioP2;P2;SDS_P1;SDS_P2;PMS_P1;PMS_P2;Temp;Humidity;BMP_temperature;BMP_pressure;BME280_temperature;BME280_humidity;BME280_pressure;Samples;Min_cycle;Max_cycle;Signal;HPM_P1;HPM_P2
2023/04/09 00:00:40;;;;;;;2.38;0.55;;;;;;;;;;4980244;28;20058;-65
2023/04/09 00:03:14;;;;;;;5.40;0.60;;;;;;;;;;5013732;28;20505;-65
2023/04/09 00:05:45;;;;;;;1.60;0.60;;;;;;;;;;5014867;28;20050;-66
2023/04/09 00:08:15;;;;;;;5.53;1.10;;;;;;;;;;4980151;28;20057;-66
2023/04/09 00:10:45;;;;;;;1.85;0.30;;;;;;;;;;4980452;28;20065;-66
2023/04/09 00:13:15;;;;;;;2.20;0.60;;;;;;;;;;5015038;28;20081;-66
2023/04/09 00:15:56;;;;;;;2.50;0.65;;;;;;;;;;4983737;28;20398;-66
2023/04/09 00:18:25;;;;;;;4.13;0.88;;;;;;;;;;4938648;28;20507;-65
2023/04/09 00:20:56;;;;;;;2.22;0.60;;;;;;;;;;4957235;28;20058;-66
2023/04/09 00:23:27;;;;;;;1.85;0.80;;;;;;;;;;4973302;28;20380;-65
2023/04/09 00:25:58;;;;;;;4.07;0.80;;;;;;;;;;4957574;28;20526;-65
2023/04/09 00:28:28;;;;;;;2.00;0.70;;;;;;;;;;4910886;29;20059;-65
2023/04/09 00:31:20;;;;;;;3.20;0.80;;;;;;;;;;4896241;29;20052;-65
2023/04/09 00:33:50;;;;;;;4.97;1.00;;;;;;;;;;4912048;29;20060;-65
2023/04/09 00:36:21;;;;;;;2.33;1.00;;;;;;;;;;4896477;29;20061;-65
2023/04/09 00:38:54;;;;;;;3.53;1.10;;;;;;;;;;4896736;29;20056;-65
2023/04/09 00:41:25;;;;;;;2.88;0.90;;;;;;;;;;4896689;29;20068;-65
2023/04/09 00:43:57;;;;;;;1.23;0.65;;;;;;;;;;4896385;29;20079;-66
2023/04/09 00:46:27;;;;;;;7.10;0.70;;;;;;;;;;4896279;29;20056;-65
2023/04/09 00:48:57;;;;;;;4.30;0.80;;;;;;;;;;4883527;29;20063;-65
2023/04/09 00:51:28;;;;;;;3.28;0.82;;;;;;;;;;4899208;29;20535;-65
2023/04/09 00:53:58;;;;;;;2.70;0.73;;;;;;;;;;4879507;29;20546;-65
2023/04/09 00:56:29;;;;;;;4.60;0.82;;;;;;;;;;4886348;29;20072;-64
2023/04/09 00:59:02;;;;;;;6.25;0.95;;;;;;;;;;4883487;29;20056;-65
2023/04/09 01:01:33;;;;;;;1.85;0.60;;;;;;;;;;4883758;29;20052;-65
2023/04/09 01:04:04;;;;;;;3.30;0.73;;;;;;;;;;4915079;29;20420;-65
2023/04/09 01:06:50;;;;;;;4.35;0.70;;;;;;;;;;4876787;29;20202;-65
2023/04/09 01:09:50;;;;;;;2.08;0.60;;;;;;;;;;4834521;29;20076;-65
2023/04/09 01:12:59;;;;;;;2.33;0.85;;;;;;;;;;4892334;29;20052;-64
2023/04/09 01:15:36;;;;;;;4.07;0.80;;;;;;;;;;4877087;29;20053;-65
2023/04/09 01:18:21;;;;;;;3.60;0.55;;;;;;;;;;4858143;29;20061;-65
2023/04/09 01:20:59;;;;;;;2.92;1.02;;;;;;;;;;4809505;29;20049;-65
2023/04/09 01:23:54;;;;;;;4.07;1.05;;;;;;;;;;4791741;29;20057;-65
2023/04/09 01:26:47;;;;;;;4.43;1.10;;;;;;;;;;4813550;29;20131;-65
2023/04/09 01:29:20;;;;;;;7.25;1.20;;;;;;;;;;4818529;29;20432;-65
2023/04/09 01:31:53;;;;;;;3.47;1.10;;;;;;;;;;4813498;29;20054;-65
2023/04/09 01:34:24;;;;;;;8.77;1.40;;;;;;;;;;4821434;29;20073;-65
2023/04/09 01:36:57;;;;;;;4.70;1.00;;;;;;;;;;4836225;29;20050;-65
2023/04/09 01:39:28;;;;;;;6.40;1.20;;;;;;;;;;4791433;29;20066;-65
2023/04/09 01:41:59;;;;;;;6.32;1.05;;;;;;;;;;4821642;29;20069;-65
2023/04/09 01:44:29;;;;;;;4.50;1.00;;;;;;;;;;4810367;29;20535;-65
2023/04/09 01:47:00;;;;;;;6.40;1.02;;;;;;;;;;4821038;29;20053;-65
2023/04/09 01:49:31;;;;;;;3.75;1.30;;;;;;;;;;4831558;29;20088;-65
2023/04/09 01:52:01;;;;;;;13.57;1.10;;;;;;;;;;4857981;29;20057;-65
2023/04/09 01:54:31;;;;;;;5.97;1.20;;;;;;;;;;4868396;29;20442;-65
2023/04/09 01:57:01;;;;;;;3.00;1.13;;;;;;;;;;4875832;29;20061;-65
2023/04/09 01:59:31;;;;;;;6.50;1.20;;;;;;;;;;4893031;29;20063;-65
2023/04/09 02:02:19;;;;;;;6.15;1.50;;;;;;;;;;4875851;29;20053;-65
2023/04/09 02:04:57;;;;;;;5.30;1.45;;;;;;;;;;4864736;29;20060;-65
2023/04/09 02:07:34;;;;;;;2.13;0.90;;;;;;;;;;4846235;29;20045;-65
2023/04/09 02:10:07;;;;;;;3.95;1.08;;;;;;;;;;4917263;29;20059;-65
2023/04/09 02:12:39;;;;;;;3.80;1.30;;;;;;;;;;4932701;29;20055;-65
2023/04/09 02:15:10;;;;;;;6.18;1.40;;;;;;;;;;4913435;29;20052;-65
2023/04/09 02:17:40;;;;;;;4.30;1.30;;;;;;;;;;4907581;29;20073;-65
2023/04/09 02:20:11;;;;;;;2.67;1.35;;;;;;;;;;4894675;29;20067;-65
2023/04/09 02:22:40;;;;;;;3.00;1.15;;;;;;;;;;4894424;29;20063;-65
2023/04/09 02:25:10;;;;;;;4.45;1.17;;;;;;;;;;4894606;29;20087;-65
2023/04/09 02:27:40;;;;;;;6.28;1.27;;;;;;;;;;4875602;29;20379;-66
2023/04/09 02:30:10;;;;;;;4.28;1.63;;;;;;;;;;4891249;29;20041;-65
2023/04/09 02:32:40;;;;;;;8.13;1.45;;;;;;;;;;4880897;29;20076;-65
2023/04/09 02:35:11;;;;;;;7.55;1.45;;;;;;;;;;4909965;29;20457;-65
2023/04/09 02:37:41;;;;;;;2.83;1.40;;;;;;;;;;4863332;29;20413;-65
2023/04/09 02:40:12;;;;;;;5.47;1.45;;;;;;;;;;4857069;29;20522;-65
2023/04/09 02:42:42;;;;;;;4.20;1.55;;;;;;;;;;4826330;29;20069;-65
2023/04/09 02:45:13;;;;;;;3.42;1.30;;;;;;;;;;4869575;29;20053;-65
2023/04/09 02:47:43;;;;;;;3.05;1.30;;;;;;;;;;4912881;29;20053;-65
2023/04/09 02:50:13;;;;;;;3.72;1.50;;;;;;;;;;4912904;29;20527;-65
2023/04/09 02:52:48;;;;;;;2.90;1.20;;;;;;;;;;4893631;29;20568;-65
2023/04/09 02:55:19;;;;;;;2.08;1.10;;;;;;;;;;4862728;29;20445;-65
2023/04/09 02:57:49;;;;;;;4.25;1.08;;;;;;;;;;4893591;29;20056;-65
2023/04/09 03:00:19;;;;;;;5.82;1.63;;;;;;;;;;4856604;29;20057;-65
2023/04/09 03:02:49;;;;;;;2.72;1.02;;;;;;;;;;4837963;29;20054;-65
2023/04/09 03:05:19;;;;;;;5.13;2.25;;;;;;;;;;4823568;29;20099;-65
2023/04/09 03:07:50;;;;;;;3.58;1.52;;;;;;;;;;4807586;29;20066;-65
2023/04/09 03:10:20;;;;;;;3.08;1.30;;;;;;;;;;4838110;29;20054;-65
2023/04/09 03:12:49;;;;;;;2.95;1.10;;;;;;;;;;4838181;29;20482;-65
2023/04/09 03:15:19;;;;;;;3.17;1.25;;;;;;;;;;4792294;29;20419;-65
2023/04/09 03:17:49;;;;;;;6.38;1.35;;;;;;;;;;4829046;29;20046;-65
2023/04/09 03:20:21;;;;;;;9.57;1.70;;;;;;;;;;4819167;29;20415;-65
2023/04/09 03:22:50;;;;;;;3.08;1.35;;;;;;;;;;4819937;29;20058;-65
2023/04/09 03:25:28;;;;;;;4.20;1.60;;;;;;;;;;4809783;29;20065;-65
2023/04/09 03:28:01;;;;;;;2.42;1.30;;;;;;;;;;4819543;29;20099;-65
2023/04/09 03:30:51;;;;;;;3.17;1.00;;;;;;;;;;4793889;29;20069;-65
2023/04/09 03:33:22;;;;;;;2.83;1.25;;;;;;;;;;4837653;29;20054;-65
2023/04/09 03:35:57;;;;;;;4.15;1.20;;;;;;;;;;4805125;29;20164;-65
2023/04/09 03:38:44;;;;;;;2.55;1.13;;;;;;;;;;4797994;29;20055;-65
2023/04/09 03:41:26;;;;;;;2.67;1.23;;;;;;;;;;4801359;29;20059;-65
2023/04/09 03:43:58;;;;;;;3.28;1.13;;;;;;;;;;4815703;29;20069;-65
2023/04/09 03:46:33;;;;;;;3.08;1.30;;;;;;;;;;4837671;29;20054;-65
2023/04/09 03:49:04;;;;;;;3.05;1.35;;;;;;;;;;4819531;29;20062;-65
2023/04/09 03:51:39;;;;;;;4.10;1.20;;;;;;;;;;4855816;29;20058;-65
2023/04/09 03:54:09;;;;;;;6.00;1.50;;;;;;;;;;4825802;29;20069;-65
2023/04/09 03:56:40;;;;;;;11.35;2.13;;;;;;;;;;4822292;29;20711;-65
2023/04/09 03:59:12;;;;;;;;;;;;;;;;;;4856393;29;20549;-65
2023/04/09 04:01:45;;;;;;;4.97;1.40;;;;;;;;;;4840228;29;19930;-65
2023/04/09 04:04:16;;;;;;;5.45;1.50;;;;;;;;;;4854351;29;20057;-65
2023/04/09 04:06:56;;;;;;;5.03;1.40;;;;;;;;;;4866741;29;20091;-65
2023/04/09 04:09:32;;;;;;;5.07;1.55;;;;;;;;;;4820657;29;20057;-65
2023/04/09 04:12:07;;;;;;;7.28;1.40;;;;;;;;;;4841106;29;20056;-65
2023/04/09 04:14:49;;;;;;;9.75;1.80;;;;;;;;;;4874126;29;20468;-65
2023/04/09 04:17:29;;;;;;;4.63;1.38;;;;;;;;;;4855635;29;20065;-65
2023/04/09 04:20:00;;;;;;;4.13;1.42;;;;;;;;;;4857996;29;20057;-65
2023/04/09 04:22:35;;;;;;;4.20;1.33;;;;;;;;;;4817700;29;20534;-65
2023/04/09 04:25:05;;;;;;;6.53;1.25;;;;;;;;;;4819286;29;20058;-65
2023/04/09 04:27:36;;;;;;;7.25;1.65;;;;;;;;;;4840391;29;20134;-65
2023/04/09 04:30:07;;;;;;;4.35;1.80;;;;;;;;;;4840519;29;20049;-65
2023/04/09 04:32:53;;;;;;;6.07;1.48;;;;;;;;;;4822180;29;20554;-65
2023/04/09 04:35:23;;;;;;;4.78;1.50;;;;;;;;;;4787216;29;20548;-65
2023/04/09 04:37:56;;;;;;;5.00;1.58;;;;;;;;;;4802435;29;20073;-65
2023/04/09 04:40:28;;;;;;;6.50;1.20;;;;;;;;;;4804088;29;20059;-65
2023/04/09 04:43:01;;;;;;;7.63;1.45;;;;;;;;;;4804120;29;20564;-65
2023/04/09 04:45:32;;;;;;;4.13;1.38;;;;;;;;;;4798341;29;20055;-65
2023/04/09 04:48:08;;;;;;;3.72;1.52;;;;;;;;;;4816765;29;20054;-65
2023/04/09 04:50:38;;;;;;;6.47;1.65;;;;;;;;;;4834293;29;20514;-65
2023/04/09 04:53:10;;;;;;;4.55;1.33;;;;;;;;;;4836645;29;20058;-65
2023/04/09 04:55:46;;;;;;;4.55;1.58;;;;;;;;;;4807732;29;20077;-65
2023/04/09 04:58:22;;;;;;;6.47;1.63;;;;;;;;;;4803427;29;20062;-65
2023/04/09 05:00:56;;;;;;;6.30;1.60;;;;;;;;;;4817524;29;20821;-65
2023/04/09 05:03:26;;;;;;;4.15;1.55;;;;;;;;;;4817321;29;20050;-65
2023/04/09 05:06:02;;;;;;;5.57;1.30;;;;;;;;;;4774765;29;20535;-65
2023/04/09 05:08:40;;;;;;;3.35;1.52;;;;;;;;;;4819101;29;20051;-65
2023/04/09 05:11:12;;;;;;;6.90;1.50;;;;;;;;;;4840011;29;20541;-65
2023/04/09 05:13:43;;;;;;;4.93;1.55;;;;;;;;;;4782035;29;20046;-65
2023/04/09 05:16:17;;;;;;;5.00;1.50;;;;;;;;;;4821462;29;20061;-65
2023/04/09 05:18:53;;;;;;;4.65;1.48;;;;;;;;;;4802933;29;20047;-65
2023/04/09 05:21:23;;;;;;;3.90;1.65;;;;;;;;;;4803288;29;20105;-65
2023/04/09 05:23:55;;;;;;;7.18;1.55;;;;;;;;;;4757391;29;20052;-65
2023/04/09 05:26:26;;;;;;;3.58;1.40;;;;;;;;;;4758642;29;20465;-65
2023/04/09 05:28:58;;;;;;;6.32;1.70;;;;;;;;;;4767040;30;20094;-65
2023/04/09 05:31:29;;;;;;;4.80;1.38;;;;;;;;;;4762927;30;20064;-65
2023/04/09 05:34:05;;;;;;;4.85;2.08;;;;;;;;;;4739483;30;20068;-65
2023/04/09 05:36:41;;;;;;;4.32;1.50;;;;;;;;;;4749381;30;20052;-65
2023/04/09 05:39:12;;;;;;;3.08;1.40;;;;;;;;;;4718793;30;20061;-65
2023/04/09 05:41:43;;;;;;;5.40;1.60;;;;;;;;;;4774330;29;20059;-65
2023/04/09 05:44:25;;;;;;;5.20;1.33;;;;;;;;;;4757584;29;20087;-65
2023/04/09 05:47:27;;;;;;;4.50;1.75;;;;;;;;;;4748346;30;20115;-65
2023/04/09 05:50:09;;;;;;;2.67;1.10;;;;;;;;;;4762078;30;20063;-65
2023/04/09 05:52:40;;;;;;;4.32;1.60;;;;;;;;;;4748886;30;20056;-65
2023/04/09 05:55:12;;;;;;;5.60;1.30;;;;;;;;;;4766853;30;20062;-65
2023/04/09 05:57:52;;;;;;;3.03;0.90;;;;;;;;;;4766247;30;20064;-65
2023/04/09 06:00:22;;;;;;;2.58;1.10;;;;;;;;;;4731149;30;20538;-65
2023/04/09 06:02:52;;;;;;;2.17;1.15;;;;;;;;;;4749299;30;20071;-65
2023/04/09 06:05:22;;;;;;;8.88;1.40;;;;;;;;;;4749253;30;20079;-65
2023/04/09 06:07:51;;;;;;;2.95;1.20;;;;;;;;;;4739928;30;20048;-65
2023/04/09 06:10:24;;;;;;;1.45;0.80;;;;;;;;;;4784399;29;20063;-65
2023/04/09 06:12:53;;;;;;;3.33;1.02;;;;;;;;;;4787489;29;20063;-65
2023/04/09 06:15:23;;;;;;;3.53;0.90;;;;;;;;;;4802727;29;20066;-65
2023/04/09 06:17:54;;;;;;;3.05;1.02;;;;;;;;;;4802168;29;20636;-65
2023/04/09 06:20:26;;;;;;;;;;;;;;;;;;4806773;29;20071;-65
2023/04/09 06:22:56;;;;;;;6.18;1.42;;;;;;;;;;4838565;29;20325;-65
2023/04/09 06:25:26;;;;;;;3.28;1.30;;;;;;;;;;4839007;29;20065;-65
2023/04/09 06:27:56;;;;;;;4.35;1.85;;;;;;;;;;4839609;29;20069;-64
2023/04/09 06:30:26;;;;;;;13.00;1.52;;;;;;;;;;4846527;29;20079;-65
2023/04/09 06:32:56;;;;;;;3.95;1.50;;;;;;;;;;4903751;29;20056;-65
2023/04/09 06:35:25;;;;;;;6.90;1.95;;;;;;;;;;4902003;29;20455;-64
2023/04/09 06:37:56;;;;;;;6.45;2.00;;;;;;;;;;4951096;29;20047;-65
2023/04/09 06:40:26;;;;;;;10.32;1.80;;;;;;;;;;4951461;29;20388;-65
2023/04/09 06:42:56;;;;;;;4.15;2.03;;;;;;;;;;4960196;28;20058;-65
2023/04/09 06:45:37;;;;;;;3.30;1.85;;;;;;;;;;4947330;28;20054;-64
2023/04/09 06:48:09;;;;;;;3.13;1.30;;;;;;;;;;4948549;28;20055;-65
2023/04/09 06:50:38;;;;;;;2.78;1.27;;;;;;;;;;4990000;28;20065;-65
2023/04/09 06:53:08;;;;;;;4.18;1.70;;;;;;;;;;4989659;28;20046;-65
2023/04/09 06:55:38;;;;;;;3.53;1.80;;;;;;;;;;5009490;28;20569;-65
2023/04/09 06:58:08;;;;;;;3.05;1.50;;;;;;;;;;4970529;28;20498;-65
2023/04/09 07:00:38;;;;;;;3.85;2.00;;;;;;;;;;5009585;28;20057;-64
2023/04/09 07:03:08;;;;;;;3.33;1.65;;;;;;;;;;5009532;28;20462;-65
2023/04/09 07:05:38;;;;;;;3.80;1.70;;;;;;;;;;4993397;28;20405;-65
2023/04/09 07:08:08;;;;;;;2.95;1.73;;;;;;;;;;5009630;28;20057;-65
2023/04/09 07:10:38;;;;;;;4.28;1.60;;;;;;;;;;4961689;28;20058;-65
2023/04/09 07:13:08;;;;;;;3.50;2.00;;;;;;;;;;5009317;28;20070;-65
2023/04/09 07:15:37;;;;;;;3.50;1.58;;;;;;;;;;4992183;28;20062;-65
2023/04/09 07:18:10;;;;;;;4.60;1.90;;;;;;;;;;4992293;28;20046;-65
2023/04/09 07:20:39;;;;;;;6.63;2.30;;;;;;;;;;4992127;28;20042;-65
2023/04/09 07:23:10;;;;;;;10.32;2.55;;;;;;;;;;4991887;28;20406;-64
2023/04/09 07:25:41;;;;;;;8.40;2.15;;;;;;;;;;4991712;28;20050;-64
2023/04/09 07:28:10;;;;;;;6.80;2.20;;;;;;;;;;4991801;28;20046;-64
2023/04/09 07:30:41;;;;;;;5.47;2.22;;;;;;;;;;4941527;28;20059;-64
2023/04/09 07:33:10;;;;;;;6.78;1.83;;;;;;;;;;4925551;28;20061;-65
2023/04/09 07:35:40;;;;;;;5.07;2.60;;;;;;;;;;4991828;28;20402;-65
2023/04/09 07:38:10;;;;;;;6.03;2.28;;;;;;;;;;4973488;28;20051;-65
2023/04/09 07:40:40;;;;;;;9.18;2.97;;;;;;;;;;4991564;28;20402;-64
2023/04/09 07:43:10;;;;;;;8.18;2.35;;;;;;;;;;4991639;28;20046;-65
2023/04/09 07:45:39;;;;;;;7.93;2.30;;;;;;;;;;4989577;28;20058;-64
2023/04/09 07:48:09;;;;;;;5.00;2.47;;;;;;;;;;4989751;28;20080;-65
2023/04/09 07:50:39;;;;;;;5.63;2.20;;;;;;;;;;4958363;28;20062;-64
2023/04/09 07:53:09;;;;;;;9.50;2.45;;;;;;;;;;4991469;28;20394;-66
2023/04/09 07:55:40;;;;;;;7.43;2.17;;;;;;;;;;4988882;28;20073;-65
2023/04/09 07:58:10;;;;;;;9.35;2.45;;;;;;;;;;4956394;28;20062;-65
2023/04/09 08:00:40;;;;;;;6.47;2.60;;;;;;;;;;4989135;28;20062;-65
2023/04/09 08:03:10;;;;;;;7.90;3.13;;;;;;;;;;4989092;28;20062;-65
2023/04/09 08:05:40;;;;;;;8.32;3.00;;;;;;;;;;4958134;28;20058;-65
2023/04/09 08:08:10;;;;;;;8.88;2.72;;;;;;;;;;4993023;28;20047;-65
2023/04/09 08:10:40;;;;;;;4.18;2.30;;;;;;;;;;4960138;28;20054;-65
2023/04/09 08:13:10;;;;;;;5.82;2.00;;;;;;;;;;4992847;28;20117;-64
2023/04/09 08:15:39;;;;;;;7.03;2.80;;;;;;;;;;4992800;28;20059;-65
2023/04/09 08:18:09;;;;;;;2.55;1.23;;;;;;;;;;4992548;28;20050;-65
2023/04/09 08:20:43;;;;;;;3.28;1.38;;;;;;;;;;4992700;28;20058;-65
2023/04/09 08:23:13;;;;;;;2.30;1.20;;;;;;;;;;4992626;28;20054;-64
2023/04/09 08:25:43;;;;;;;2.97;1.42;;;;;;;;;;4992518;28;20046;-64
2023/04/09 08:28:13;;;;;;;3.45;1.65;;;;;;;;;;4992800;28;20065;-64
2023/04/09 08:30:43;;;;;;;6.90;2.17;;;;;;;;;;4992351;28;20046;-65
2023/04/09 08:33:13;;;;;;;5.55;2.05;;;;;;;;;;4992284;28;20542;-64
2023/04/09 08:35:43;;;;;;;8.30;2.30;;;;;;;;;;4993390;28;20421;-64
2023/04/09 08:38:14;;;;;;;8.20;2.22;;;;;;;;;;4994749;28;20053;-64
2023/04/09 08:40:45;;;;;;;7.93;3.10;;;;;;;;;;4994630;28;20050;-64
2023/04/09 08:43:16;;;;;;;4.93;2.08;;;;;;;;;;4991871;28;20054;-64
2023/04/09 08:45:46;;;;;;;5.05;1.90;;;;;;;;;;4992343;28;20494;-64
2023/04/09 08:48:17;;;;;;;4.88;2.05;;;;;;;;;;4976465;28;20054;-64
2023/04/09 08:50:47;;;;;;;6.28;2.13;;;;;;;;;;4991990;28;20494;-64
2023/04/09 08:53:18;;;;;;;5.22;2.90;;;;;;;;;;4991786;28;20450;-63
2023/04/09 08:55:48;;;;;;;3.85;1.88;;;;;;;;;;4991777;28;20046;-64
2023/04/09 08:58:17;;;;;;;9.63;2.55;;;;;;;;;;4991529;28;20655;-64
2023/04/09 09:00:47;;;;;;;9.88;1.83;;;;;;;;;;4959429;28;20054;-64
2023/04/09 09:03:17;;;;;;;3.55;1.67;;;;;;;;;;4991921;28;20525;-64
2023/04/09 09:05:46;;;;;;;7.10;2.20;;;;;;;;;;4991940;28;20054;-64
2023/04/09 09:08:25;;;;;;;6.03;2.28;;;;;;;;;;4943467;28;20050;-64
2023/04/09 09:10:56;;;;;;;7.97;2.60;;;;;;;;;;4943486;28;20069;-64
2023/04/09 09:13:26;;;;;;;5.30;2.55;;;;;;;;;;4943648;28;20567;-64
2023/04/09 09:16:15;;;;;;;5.55;2.78;;;;;;;;;;4944091;28;20469;-64
2023/04/09 09:18:45;;;;;;;7.95;3.78;;;;;;;;;;4993759;28;20410;-64
2023/04/09 09:21:16;;;;;;;9.73;2.92;;;;;;;;;;4959539;28;20054;-64
2023/04/09 09:23:49;;;;;;;14.02;3.42;;;;;;;;;;4971753;28;20050;-64
2023/04/09 09:26:24;;;;;;;8.43;2.75;;;;;;;;;;4972019;28;20451;-64
2023/04/09 09:28:57;;;;;;;6.53;2.30;;;;;;;;;;4971999;28;20054;-64
2023/04/09 09:31:27;;;;;;;5.97;2.45;;;;;;;;;;4971964;28;20047;-63
2023/04/09 09:33:59;;;;;;;5.70;2.38;;;;;;;;;;4971608;28;20522;-63
2023/04/09 09:36:34;;;;;;;7.05;2.45;;;;;;;;;;4923934;28;20062;-64
2023/04/09 09:39:08;;;;;;;10.88;2.50;;;;;;;;;;4971638;28;20067;-64
2023/04/09 09:41:40;;;;;;;6.22;2.33;;;;;;;;;;4971584;28;20054;-64
2023/04/09 09:44:12;;;;;;;8.63;3.13;;;;;;;;;;4971676;28;20055;-63
2023/04/09 09:46:42;;;;;;;8.57;2.85;;;;;;;;;;4971319;28;20063;-63
2023/04/09 09:49:11;;;;;;;6.75;2.22;;;;;;;;;;4971587;28;20162;-63
2023/04/09 09:51:42;;;;;;;8.63;2.25;;;;;;;;;;4971661;28;20615;-63
2023/04/09 09:54:16;;;;;;;6.85;1.90;;;;;;;;;;4940455;28;20414;-63
2023/04/09 09:56:50;;;;;;;6.53;3.00;;;;;;;;;;4955023;28;20054;-64
2023/04/09 09:59:22;;;;;;;9.85;3.20;;;;;;;;;;4971403;28;20407;-63
2023/04/09 10:02:18;;;;;;;8.02;3.67;;;;;;;;;;4986378;28;20447;-62
2023/04/09 10:04:52;;;;;;;10.15;3.58;;;;;;;;;;4958860;28;20392;-63
2023/04/09 10:07:23;;;;;;;10.43;3.42;;;;;;;;;;4993268;28;20073;-63
2023/04/09 10:09:57;;;;;;;8.93;3.90;;;;;;;;;;4944112;28;20054;-63
2023/04/09 10:12:27;;;;;;;10.30;4.55;;;;;;;;;;4971042;28;20102;-63
2023/04/09 10:15:03;;;;;;;10.20;4.55;;;;;;;;;;4954690;28;20069;-63
2023/04/09 10:17:33;;;;;;;10.95;5.50;;;;;;;;;;4971261;28;20059;-63
2023/04/09 10:20:17;;;;;;;10.52;4.88;;;;;;;;;;4924082;28;20055;-63
2023/04/09 10:22:49;;;;;;;9.43;4.38;;;;;;;;;;4954744;28;20066;-63
2023/04/09 10:25:20;;;;;;;17.38;4.75;;;;;;;;;;4932298;29;20519;-63
2023/04/09 10:28:15;;;;;;;9.52;4.75;;;;;;;;;;4932104;29;20513;-64
2023/04/09 10:30:45;;;;;;;14.27;4.65;;;;;;;;;;4902154;29;20048;-63
2023/04/09 10:33:26;;;;;;;12.88;5.13;;;;;;;;;;4885615;29;20059;-64
2023/04/09 10:36:03;;;;;;;9.02;4.53;;;;;;;;;;4916179;29;20055;-63
2023/04/09 10:38:39;;;;;;;10.63;4.47;;;;;;;;;;4932214;29;20067;-63
2023/04/09 10:41:26;;;;;;;8.85;4.35;;;;;;;;;;4932151;29;20067;-63
2023/04/09 10:43:57;;;;;;;10.30;4.32;;;;;;;;;;4943877;29;20522;-63
2023/04/09 10:46:26;;;;;;;9.27;3.78;;;;;;;;;;4951251;29;20067;-63
2023/04/09 10:49:16;;;;;;;7.70;3.88;;;;;;;;;;4951449;29;20051;-63
2023/04/09 10:52:00;;;;;;;10.43;4.70;;;;;;;;;;4935263;29;20561;-63
2023/04/09 10:54:54;;;;;;;9.15;4.72;;;;;;;;;;4950918;29;20062;-64
2023/04/09 10:57:25;;;;;;;12.15;4.90;;;;;;;;;;4965975;28;20502;-63
2023/04/09 10:59:55;;;;;;;12.55;4.15;;;;;;;;;;4992393;28;20046;-63
2023/04/09 11:02:30;;;;;;;8.88;4.35;;;;;;;;;;4942008;28;20054;-64
2023/04/09 11:05:31;;;;;;;10.52;4.25;;;;;;;;;;4973901;28;20050;-64
2023/04/09 11:08:09;;;;;;;8.45;3.55;;;;;;;;;;4951047;28;20051;-64
2023/04/09 11:10:41;;;;;;;7.22;3.15;;;;;;;;;;4953830;28;20057;-64
2023/04/09 11:13:12;;;;;;;6.32;3.03;;;;;;;;;;4954250;28;20055;-64
2023/04/09 11:15:43;;;;;;;10.68;3.30;;;;;;;;;;4937538;28;20495;-64
2023/04/09 11:18:29;;;;;;;8.05;3.08;;;;;;;;;;4970251;28;20063;-65
2023/04/09 11:21:02;;;;;;;7.68;3.20;;;;;;;;;;4970058;28;20046;-64
2023/04/09 11:23:32;;;;;;;7.70;3.22;;;;;;;;;;4938563;28;20106;-64
2023/04/09 11:26:02;;;;;;;7.22;3.40;;;;;;;;;;4970085;28;20046;-64
2023/04/09 11:28:34;;;;;;;6.93;3.78;;;;;;;;;;4970025;28;20089;-64
2023/04/09 11:31:05;;;;;;;;;;;;;;;;;;4939391;28;20085;-64
2023/04/09 11:33:35;;;;;;;9.30;3.42;;;;;;;;;;4970027;28;19922;-63
2023/04/09 11:36:05;;;;;;;7.05;3.90;;;;;;;;;;4936027;28;20506;-63
2023/04/09 11:38:37;;;;;;;8.27;3.83;;;;;;;;;;4975884;28;20065;-64
2023/04/09 11:41:11;;;;;;;8.48;3.67;;;;;;;;;;4993968;28;20517;-64
2023/04/09 11:43:42;;;;;;;7.45;3.92;;;;;;;;;;4995846;28;20042;-64
2023/04/09 11:46:12;;;;;;;9.07;3.45;;;;;;;;;;4995605;28;20038;-64
2023/04/09 11:48:41;;;;;;;6.93;3.28;;;;;;;;;;4995574;28;20054;-64
2023/04/09 11:51:11;;;;;;;4.70;1.98;;;;;;;;;;4977262;28;20061;-64
2023/04/09 11:53:41;;;;;;;5.93;3.42;;;;;;;;;;4995784;28;20486;-64
2023/04/09 11:56:11;;;;;;;5.50;3.17;;;;;;;;;;4976988;28;20058;-64
2023/04/09 11:58:48;;;;;;;5.22;2.25;;;;;;;;;;4995374;28;20058;-64
2023/04/09 12:01:21;;;;;;;8.95;3.35;;;;;;;;;;4995465;28;20042;-64
2023/04/09 12:03:54;;;;;;;6.13;2.50;;;;;;;;;;4995511;28;20069;-64
2023/04/09 12:06:26;;;;;;;3.22;1.63;;;;;;;;;;4995165;28;20042;-64
2023/04/09 12:08:59;;;;;;;10.23;2.70;;;;;;;;;;4976901;28;20058;-64
2023/04/09 12:11:30;;;;;;;5.13;1.90;;;;;;;;;;4945059;28;20051;-64
2023/04/09 12:14:04;;;;;;;3.67;1.90;;;;;;;;;;4995021;28;20046;-64
2023/04/09 12:16:35;;;;;;;2.72;1.80;;;;;;;;;;4995083;28;20402;-64
2023/04/09 12:19:09;;;;;;;2.88;1.38;;;;;;;;;;4995175;28;20047;-64
2023/04/09 12:21:57;;;;;;;2.80;1.60;;;;;;;;;;4978230;28;20050;-65
2023/04/09 12:24:28;;;;;;;2.13;1.33;;;;;;;;;;4995061;28;20050;-64
2023/04/09 12:26:57;;;;;;;3.55;1.20;;;;;;;;;;4995097;28;20046;-64
2023/04/09 12:29:28;;;;;;;2.10;1.30;;;;;;;;;;4994831;28;20046;-64
2023/04/09 12:31:58;;;;;;;2.13;1.30;;;;;;;;;;4994813;28;20046;-64
2023/04/09 12:34:28;;;;;;;2.47;1.30;;;;;;;;;;4960257;28;20881;-64
2023/04/09 12:36:58;;;;;;;2.50;1.27;;;;;;;;;;4994673;28;20051;-64
2023/04/09 12:39:28;;;;;;;2.28;1.30;;;;;;;;;;4977675;28;20047;-64
2023/04/09 12:42:01;;;;;;;2.40;1.73;;;;;;;;;;4994766;28;20046;-64
2023/04/09 12:44:32;;;;;;;2.15;1.13;;;;;;;;;;4992784;28;20058;-64
2023/04/09 12:47:01;;;;;;;1.90;1.00;;;;;;;;;;4960246;28;20577;-64
2023/04/09 12:49:31;;;;;;;2.13;1.23;;;;;;;;;;4994718;28;20046;-64
2023/04/09 12:52:01;;;;;;;1.70;1.20;;;;;;;;;;4993869;28;20046;-64
2023/04/09 12:54:31;;;;;;;1.30;0.80;;;;;;;;;;4994376;28;20046;-64
2023/04/09 12:57:00;;;;;;;3.22;0.90;;;;;;;;;;4964682;28;20058;-64
2023/04/09 12:59:30;;;;;;;1.90;0.93;;;;;;;;;;4995400;28;20057;-64
2023/04/09 13:02:00;;;;;;;2.33;0.80;;;;;;;;;;5011637;28;20056;-64
2023/04/09 13:04:31;;;;;;;2.10;1.02;;;;;;;;;;4995533;28;20064;-64
2023/04/09 13:07:01;;;;;;;2.35;0.90;;;;;;;;;;5013741;28;20050;-64
2023/04/09 13:09:35;;;;;;;1.88;0.82;;;;;;;;;;4963401;28;20058;-65
2023/04/09 13:12:06;;;;;;;1.60;0.80;;;;;;;;;;4995810;28;20080;-64
2023/04/09 13:14:39;;;;;;;1.27;0.90;;;;;;;;;;4979178;28;20053;-64
2023/04/09 13:17:09;;;;;;;2.22;1.20;;;;;;;;;;4962939;28;20103;-64
2023/04/09 13:19:39;;;;;;;1.30;0.75;;;;;;;;;;5013755;28;20498;-64
2023/04/09 13:22:10;;;;;;;1.60;1.08;;;;;;;;;;4979832;28;20414;-64
2023/04/09 13:24:41;;;;;;;2.00;0.90;;;;;;;;;;5011435;28;20498;-65
2023/04/09 13:27:12;;;;;;;3.42;0.85;;;;;;;;;;4995141;28;20521;-65
2023/04/09 13:29:41;;;;;;;5.88;1.10;;;;;;;;;;4978998;28;20058;-64
2023/04/09 13:32:11;;;;;;;3.70;1.13;;;;;;;;;;5033168;28;20049;-64
2023/04/09 13:34:41;;;;;;;2.47;1.30;;;;;;;;;;5033166;28;20072;-64
2023/04/09 13:37:12;;;;;;;1.35;0.80;;;;;;;;;;5015165;28;20497;-64
2023/04/09 13:39:42;;;;;;;1.58;0.68;;;;;;;;;;4998209;28;20060;-64
2023/04/09 13:42:12;;;;;;;1.27;0.60;;;;;;;;;;4998572;28;20057;-64
2023/04/09 13:44:43;;;;;;;1.42;0.60;;;;;;;;;;5032899;28;20045;-65
2023/04/09 13:47:15;;;;;;;3.17;0.90;;;;;;;;;;5032533;28;20049;-64
2023/04/09 13:49:45;;;;;;;1.10;0.75;;;;;;;;;;5032849;28;20389;-64
2023/04/09 13:52:15;;;;;;;3.05;0.80;;;;;;;;;;5032927;28;20049;-65
2023/04/09 13:54:45;;;;;;;2.20;0.73;;;;;;;;;;4981588;28;20494;-64
2023/04/09 13:57:15;;;;;;;3.20;0.90;;;;;;;;;;5032692;28;20494;-64
2023/04/09 13:59:46;;;;;;;1.45;0.60;;;;;;;;;;4998081;28;20061;-65
2023/04/09 14:02:16;;;;;;;3.00;0.85;;;;;;;;;;4981196;28;20053;-65
2023/04/09 14:04:48;;;;;;;1.58;0.70;;;;;;;;;;4981834;28;20050;-64
2023/04/09 14:07:17;;;;;;;1.80;0.80;;;;;;;;;;5032562;28;20053;-65
2023/04/09 14:09:47;;;;;;;1.65;0.80;;;;;;;;;;5014506;28;20061;-65
2023/04/09 14:12:18;;;;;;;2.75;1.50;;;;;;;;;;5014081;28;20436;-65
2023/04/09 14:14:48;;;;;;;2.03;1.10;;;;;;;;;;5032177;28;20049;-65
2023/04/09 14:17:18;;;;;;;2.40;0.98;;;;;;;;;;5032538;28;20060;-64
2023/04/09 14:19:48;;;;;;;4.55;0.80;;;;;;;;;;5032334;28;20513;-65
2023/04/09 14:22:18;;;;;;;1.15;0.65;;;;;;;;;;5032156;28;20070;-65
2023/04/09 14:24:47;;;;;;;1.13;0.60;;;;;;;;;;5014921;28;20482;-65
2023/04/09 14:27:17;;;;;;;0.70;0.52;;;;;;;;;;5032064;28;20053;-65
2023/04/09 14:29:47;;;;;;;1.48;0.80;;;;;;;;;;4997235;28;20076;-65
2023/04/09 14:32:18;;;;;;;1.30;0.90;;;;;;;;;;5013999;28;20065;-65
2023/04/09 14:34:48;;;;;;;0.70;0.47;;;;;;;;;;5031806;28;20424;-65
2023/04/09 14:37:18;;;;;;;0.70;0.50;;;;;;;;;;4997195;28;20500;-65
2023/04/09 14:39:47;;;;;;;2.03;1.00;;;;;;;;;;4997055;28;20060;-65
2023/04/09 14:42:17;;;;;;;2.60;0.93;;;;;;;;;;5031928;28;20041;-65
2023/04/09 14:44:48;;;;;;;1.13;0.60;;;;;;;;;;4980528;28;20527;-65
2023/04/09 14:47:18;;;;;;;1.55;0.68;;;;;;;;;;5031840;28;20061;-65
2023/04/09 14:49:48;;;;;;;1.25;0.60;;;;;;;;;;5031536;28;20053;-65
2023/04/09 14:52:17;;;;;;;1.23;0.50;;;;;;;;;;4980795;28;20065;-66
2023/04/09 14:54:47;;;;;;;1.55;0.50;;;;;;;;;;4989753;28;20057;-65
2023/04/09 14:57:17;;;;;;;1.00;0.88;;;;;;;;;;4973553;28;20050;-64
2023/04/09 14:59:47;;;;;;;1.48;0.60;;;;;;;;;;4956826;28;20043;-65
2023/04/09 15:02:16;;;;;;;1.80;0.60;;;;;;;;;;4956635;28;20047;-65
2023/04/09 15:04:46;;;;;;;0.85;0.45;;;;;;;;;;4956875;28;20062;-65
2023/04/09 15:07:17;;;;;;;0.95;0.50;;;;;;;;;;4940354;28;20054;-66
2023/04/09 15:09:46;;;;;;;0.55;0.43;;;;;;;;;;4956679;28;20046;-65
2023/04/09 15:12:17;;;;;;;0.70;0.50;;;;;;;;;;4957488;28;20054;-66
2023/04/09 15:14:47;;;;;;;1.52;0.50;;;;;;;;;;4957204;28;20062;-65